| Date | Time | Temp. (oF) | Dew Point (oF) | Rel. Hum. (%) | Press. (in.) | Wind Dir. (deg.) | Wind Speed (mph) | Hourly Rainfall (i n.) |
|
|---|---|---|---|---|---|---|---|---|---|
| 1 | 12/02 | 24:00 | 28 | 13 | 54 | 30.39 | 310 | 2 | 0.00 |
| 2 | 12/01 | 23:00 | 28 | 11 | 50 | 30.39 | 300 | 6 | 0.00 |
| 3 | 12/01 | 22:00 | 27 | 10 | 50 | 30.40 | 300 | 7 | 0.00 |
| 4 | 12/01 | 21:00 | 28 | 11 | 49 | 30.42 | 290 | 7 | 0.00 |
| 5 | 12/01 | 20:00 | 28 | 9 | 46 | 30.41 | 300 | 7 | 0.00 |
| 6 | 12/01 | 19:00 | 29 | 9 | 44 | 30.42 | 330 | 6 | 0.00 |
| 7 | 12/01 | 18:00 | 30 | 9 | 41 | 30.42 | 290 | 9 | 0.00 |
| 8 | 12/01 | 17:00 | 31 | 7 | 37 | 30.41 | 310 | 6 | 0.00 |
| 9 | 12/01 | 16:00 | 33 | 6 | 33 | 30.41 | 340 | 7 | 0.00 |
| 10 | 12/01 | 15:00 | 34 | 6 | 31 | 30.41 | 280 | 9 | 0.00 |
| 11 | 12/01 | 14:00 | 34 | 6 | 31 | 30.40 | 10 | 6 | 0.00 |
| 12 | 12/01 | 13:00 | 32 | 6 | 34 | 30.40 | 330 | 7 | 0.00 |
| 13 | 12/01 | 12:00 | 30 | 6 | 36 | 30.42 | 350 | 10 | 0.00 |
| 14 | 12/01 | 11:00 | 29 | 5 | 37 | 30.42 | 10 | 7 | 0.00 |
| 15 | 12/01 | 10:00 | 27 | 6 | 41 | 30.45 | 340 | 2 | 0.00 |
| 16 | 12/01 | 09:00 | 24 | 8 | 50 | 30.45 | 330 | 7 | 0.00 |
| 17 | 12/01 | 08:00 | 22 | 9 | 59 | 30.45 | 270 | 7 | 0.00 |
| 18 | 12/01 | 07:00 | 21 | 9 | 60 | 30.45 | 290 | 4 | 0.00 |
| 19 | 12/01 | 06:00 | 21 | 9 | 61 | 30.46 | 10 | 1 | 0.00 |
| 20 | 12/01 | 05:00 | 22 | 9 | 57 | 30.46 | 10 | 2 | 0.00 |
| 21 | 12/01 | 04:00 | 22 | 7 | 52 | 30.46 | 330 | 4 | 0.00 |
| 22 | 12/01 | 03:00 | 23 | 10 | 58 | 30.48 | 310 | 4 | 0.00 |
| 23 | 12/01 | 02:00 | 24 | 12 | 60 | 30.48 | 10 | 7 | 0.00 |
| 24 | 12/01 | 01:00 | 24 | 12 | 61 | 30.49 | 320 | 2 | 0.00 |